createdAt,value
2018-03-25T00:02:05.469Z,32.33
2018-03-25T00:04:37.000Z,36.77
2018-03-25T00:07:05.866Z,19.63
2018-03-25T00:09:34.146Z,28.80
2018-03-25T00:12:03.885Z,33.67
2018-03-25T00:14:34.701Z,36.87
2018-03-25T00:17:03.864Z,32.03
2018-03-25T00:19:32.140Z,29.90
2018-03-25T00:22:01.841Z,35.80
2018-03-25T00:24:33.733Z,26.57
2018-03-25T00:27:02.244Z,25.10
2018-03-25T00:29:30.515Z,32.80
2018-03-25T00:31:58.791Z,39.17
2018-03-25T00:34:27.071Z,40.57
2018-03-25T00:36:55.367Z,26.50
2018-03-25T00:39:26.014Z,25.30
2018-03-25T00:41:55.295Z,33.80
2018-03-25T00:44:25.027Z,39.73
2018-03-25T00:46:56.318Z,35.50
2018-03-25T00:49:24.607Z,31.60
2018-03-25T00:51:54.349Z,38.70
2018-03-25T00:54:23.499Z,26.83
2018-03-25T00:56:52.745Z,28.97
2018-03-25T00:59:21.045Z,34.77
2018-03-25T01:01:49.316Z,30.83
2018-03-25T01:04:17.581Z,31.50
2018-03-25T01:06:45.905Z,35.10
2018-03-25T01:09:14.241Z,36.57
2018-03-25T01:11:42.505Z,32.00
2018-03-25T01:14:10.790Z,37.10
2018-03-25T01:16:39.051Z,37.70
2018-03-25T01:19:07.381Z,34.83
2018-03-25T01:21:35.690Z,33.77
2018-03-25T01:24:04.749Z,40.40
2018-03-25T01:26:33.035Z,40.23
2018-03-25T01:29:01.307Z,31.30
2018-03-25T01:31:29.606Z,36.93
2018-03-25T01:33:57.870Z,29.07
2018-03-25T01:36:26.233Z,38.40
2018-03-25T01:38:54.497Z,27.40
2018-03-25T01:41:22.796Z,30.63
2018-03-25T01:43:51.051Z,35.17
2018-03-25T01:46:19.370Z,51.80
2018-03-25T01:48:48.453Z,34.07
2018-03-25T01:51:16.726Z,21.60
2018-03-25T01:53:45.006Z,40.10
2018-03-25T01:56:13.297Z,30.60
2018-03-25T01:58:41.549Z,25.80
2018-03-25T02:01:09.819Z,37.27
2018-03-25T02:03:38.101Z,29.13
2018-03-25T02:06:06.381Z,13.77
2018-03-25T02:08:34.655Z,36.20
2018-03-25T02:11:02.961Z,25.97
2018-03-25T02:13:31.993Z,33.93
2018-03-25T02:16:00.271Z,35.47
2018-03-25T02:18:28.555Z,17.30
2018-03-25T02:20:56.814Z,30.23
2018-03-25T02:23:26.009Z,31.27
2018-03-25T02:25:54.284Z,34.97
2018-03-25T02:28:22.562Z,38.93
2018-03-25T02:30:50.855Z,36.13
2018-03-25T02:33:19.196Z,32.03
2018-03-25T02:35:47.442Z,40.97
2018-03-25T02:38:15.748Z,36.10
2018-03-25T02:40:44.798Z,37.67
2018-03-25T02:43:13.092Z,30.67
2018-03-25T02:45:42.190Z,37.23
2018-03-25T02:48:11.990Z,42.63
2018-03-25T02:50:40.310Z,37.63
2018-03-25T02:53:09.334Z,28.80
2018-03-25T02:55:37.608Z,28.40
2018-03-25T02:58:05.881Z,37.63
2018-03-25T03:00:34.175Z,38.17
2018-03-25T03:03:02.452Z,28.90
2018-03-25T03:05:30.722Z,40.90
2018-03-25T03:07:59.113Z,31.57
2018-03-25T03:10:27.386Z,39.23
2018-03-25T03:12:55.588Z,44.87
2018-03-25T03:15:24.583Z,36.30
2018-03-25T03:17:52.775Z,42.50
2018-03-25T03:20:21.128Z,32.90
2018-03-25T03:22:49.437Z,35.00
2018-03-25T03:25:17.727Z,42.17
2018-03-25T03:27:45.994Z,39.63
2018-03-25T03:30:14.271Z,33.30
2018-03-25T03:32:42.549Z,42.70
2018-03-25T03:35:10.821Z,54.10
2018-03-25T03:37:39.102Z,44.57
2018-03-25T03:40:07.430Z,34.87
2018-03-25T03:42:35.740Z,29.67
2018-03-25T03:45:04.812Z,48.50
2018-03-25T03:47:33.882Z,44.30
2018-03-25T03:50:02.190Z,36.70
2018-03-25T03:52:31.705Z,33.20
2018-03-25T03:55:01.830Z,42.83
2018-03-25T03:57:30.881Z,50.73
2018-03-25T04:00:00.247Z,21.63
2018-03-25T04:02:28.540Z,41.70
2018-03-25T04:04:59.711Z,47.40
2018-03-25T04:07:28.007Z,37.10
2018-03-25T04:09:56.281Z,47.50
2018-03-25T04:12:24.566Z,42.70
2018-03-25T04:14:55.586Z,40.77
2018-03-25T04:17:23.868Z,48.97
2018-03-25T04:19:52.153Z,39.10
2018-03-25T04:22:21.205Z,44.00
2018-03-25T04:24:49.478Z,43.43
2018-03-25T04:27:17.751Z,38.67
2018-03-25T04:29:46.025Z,32.10
2018-03-25T04:32:14.308Z,32.17
2018-03-25T04:34:42.591Z,36.50
2018-03-25T04:37:10.916Z,38.37
2018-03-25T04:39:39.974Z,36.50
2018-03-25T04:42:08.254Z,38.97
2018-03-25T04:44:36.528Z,46.07
2018-03-25T04:47:04.807Z,31.20
2018-03-25T04:49:33.101Z,51.43
2018-03-25T04:52:01.373Z,43.00
2018-03-25T04:54:29.663Z,40.67
2018-03-25T04:56:58.731Z,54.27
2018-03-25T04:59:27.020Z,36.80
2018-03-25T05:01:55.340Z,53.43
2018-03-25T05:04:23.635Z,43.03
2018-03-25T05:06:52.533Z,47.40
2018-03-25T05:09:21.746Z,43.93
2018-03-25T05:11:50.033Z,42.80
2018-03-25T05:14:18.312Z,60.70
2018-03-25T05:16:46.641Z,40.60
2018-03-25T05:19:14.936Z,49.60
2018-03-25T05:21:43.227Z,49.30
2018-03-25T05:24:11.531Z,44.63
2018-03-25T05:26:42.041Z,38.10
2018-03-25T05:29:11.275Z,49.97
2018-03-25T05:31:40.319Z,41.27
2018-03-25T05:34:08.638Z,49.93
2018-03-25T05:36:36.898Z,43.37
2018-03-25T05:39:05.269Z,35.43
2018-03-25T05:41:33.564Z,41.83
2018-03-25T05:44:01.837Z,44.13
2018-03-25T05:46:30.904Z,41.57
2018-03-25T05:48:59.187Z,41.50
2018-03-25T05:51:27.472Z,53.70
2018-03-25T05:53:55.812Z,40.80
2018-03-25T05:56:24.965Z,34.77
2018-03-25T05:58:54.037Z,25.20
2018-03-25T06:01:22.331Z,36.10
2018-03-25T06:03:51.500Z,38.93
2018-03-25T06:06:19.823Z,39.37
2018-03-25T06:08:54.028Z,37.17
2018-03-25T06:11:23.451Z,42.63
2018-03-25T06:13:53.474Z,29.00
2018-03-25T06:16:25.261Z,42.30
2018-03-25T06:18:55.921Z,38.67
2018-03-25T06:21:28.580Z,34.77
2018-03-25T06:23:57.130Z,42.17
2018-03-25T06:26:27.351Z,41.93
2018-03-25T06:28:57.188Z,42.40
2018-03-25T06:31:25.461Z,36.13
2018-03-25T06:33:55.044Z,33.90
2018-03-25T06:36:24.083Z,36.80
2018-03-25T06:38:52.367Z,37.13
2018-03-25T06:41:20.668Z,40.00
2018-03-25T06:43:49.705Z,37.00
2018-03-25T06:46:17.972Z,36.77
2018-03-25T06:48:46.348Z,34.60
2018-03-25T06:51:14.616Z,41.83
2018-03-25T06:53:43.743Z,38.60
2018-03-25T06:56:12.024Z,30.47
2018-03-25T06:58:40.296Z,37.87
2018-03-25T07:01:08.590Z,39.77
2018-03-25T07:03:36.869Z,37.07
2018-03-25T07:06:05.924Z,35.23
2018-03-25T07:08:34.252Z,32.60
2018-03-25T07:11:02.497Z,35.43
2018-03-25T07:13:30.771Z,38.33
2018-03-25T07:15:59.051Z,29.00
2018-03-25T07:18:27.314Z,39.17
2018-03-25T07:20:55.640Z,32.23
2018-03-25T07:23:24.702Z,39.80
2018-03-25T07:25:53.013Z,34.40
2018-03-25T07:28:21.301Z,45.13
2018-03-25T07:30:51.310Z,40.60
2018-03-25T07:33:22.930Z,38.53
2018-03-25T07:35:51.754Z,37.80
2018-03-25T07:38:25.284Z,34.57
2018-03-25T07:40:55.215Z,35.63
2018-03-25T07:43:25.143Z,36.43
2018-03-25T07:45:54.163Z,32.83
2018-03-25T07:48:23.175Z,33.70
2018-03-25T07:50:53.378Z,35.00
2018-03-25T07:53:25.420Z,37.43
2018-03-25T07:55:54.375Z,45.10
2018-03-25T07:58:23.626Z,34.17
2018-03-25T08:00:54.217Z,34.57
2018-03-25T08:03:22.493Z,39.33
2018-03-25T08:05:50.836Z,36.20
2018-03-25T08:08:19.172Z,34.30
2018-03-25T08:10:47.446Z,30.50
2018-03-25T08:13:16.537Z,36.83
2018-03-25T08:15:46.752Z,32.30
2018-03-25T08:18:16.218Z,35.00
2018-03-25T08:20:46.242Z,33.10
2018-03-25T08:23:17.972Z,34.57
2018-03-25T08:25:47.486Z,36.60
2018-03-25T08:28:17.346Z,36.97
2018-03-25T08:30:46.463Z,35.50
2018-03-25T08:33:15.746Z,38.83
2018-03-25T08:35:44.778Z,37.30
2018-03-25T08:38:13.048Z,45.13
2018-03-25T08:40:41.348Z,37.90
2018-03-25T08:43:12.747Z,38.03
2018-03-25T08:45:41.014Z,47.03
2018-03-25T08:48:11.360Z,40.87
2018-03-25T08:50:45.824Z,49.30
2018-03-25T08:53:15.025Z,43.33
2018-03-25T08:55:45.024Z,40.73
2018-03-25T08:58:13.959Z,41.20
2018-03-25T09:00:42.873Z,41.77
2018-03-25T09:03:11.250Z,41.30
2018-03-25T09:05:39.512Z,38.50
2018-03-25T09:08:07.801Z,37.70
2018-03-25T09:10:37.088Z,40.60
2018-03-25T09:13:05.381Z,39.57
2018-03-25T09:15:33.694Z,39.03
2018-03-25T09:18:02.728Z,40.40
2018-03-25T09:20:31.034Z,38.43
2018-03-25T09:23:00.431Z,36.83
2018-03-25T09:25:29.606Z,35.87
2018-03-25T09:27:57.890Z,36.70
2018-03-25T09:30:26.213Z,31.27
2018-03-25T09:32:54.574Z,36.37
2018-03-25T09:35:23.640Z,37.40
2018-03-25T09:37:51.958Z,32.00
2018-03-25T09:40:20.229Z,36.80
2018-03-25T09:42:49.405Z,39.67
2018-03-25T09:45:18.261Z,39.37
2018-03-25T09:47:46.706Z,33.90
2018-03-25T09:50:15.007Z,32.80
2018-03-25T09:52:43.308Z,37.60
2018-03-25T09:55:12.832Z,37.60
2018-03-25T09:57:41.105Z,35.37
2018-03-25T10:00:09.403Z,39.30
2018-03-25T10:02:42.957Z,36.87
2018-03-25T10:05:11.223Z,42.37
2018-03-25T10:07:39.519Z,33.90
2018-03-25T10:10:07.807Z,34.80
2018-03-25T10:12:36.212Z,37.47
2018-03-25T10:15:05.251Z,30.60
2018-03-25T10:17:33.525Z,35.70
2018-03-25T10:20:01.824Z,37.80
2018-03-25T10:22:30.100Z,29.00
2018-03-25T10:24:58.402Z,37.93
2018-03-25T10:27:26.679Z,34.90
2018-03-25T10:29:55.766Z,35.63
2018-03-25T10:32:24.602Z,38.43
2018-03-25T10:34:52.936Z,35.00
2018-03-25T10:37:21.206Z,33.03
2018-03-25T10:39:49.497Z,31.33
2018-03-25T10:42:17.856Z,34.47
2018-03-25T10:44:47.770Z,30.47
2018-03-25T10:47:17.799Z,30.33
2018-03-25T10:49:46.898Z,35.07
2018-03-25T10:52:16.043Z,35.20
2018-03-25T10:54:44.346Z,30.63
2018-03-25T10:57:15.479Z,28.57
2018-03-25T10:59:44.701Z,34.77
2018-03-25T11:02:13.624Z,35.57
2018-03-25T11:04:41.943Z,28.37
2018-03-25T11:07:11.039Z,35.20
2018-03-25T11:09:39.314Z,31.00
2018-03-25T11:12:11.052Z,31.10
2018-03-25T11:14:39.335Z,29.10
2018-03-25T11:17:08.436Z,35.10
2018-03-25T11:19:36.751Z,32.43
2018-03-25T11:22:05.663Z,30.67
2018-03-25T11:24:35.504Z,32.07
2018-03-25T11:27:04.573Z,35.03
2018-03-25T11:29:32.854Z,33.90
2018-03-25T11:32:02.920Z,28.30
2018-03-25T11:34:31.196Z,26.20
2018-03-25T11:37:01.209Z,24.67
2018-03-25T11:39:30.067Z,24.90
2018-03-25T11:41:59.100Z,27.27
2018-03-25T11:44:27.393Z,24.53
2018-03-25T11:46:55.662Z,27.97
2018-03-25T11:49:23.967Z,27.70
2018-03-25T11:51:52.260Z,21.13
2018-03-25T11:54:21.285Z,26.70
2018-03-25T11:56:49.569Z,23.47
2018-03-25T11:59:18.553Z,24.40
2018-03-25T12:01:46.876Z,28.07
2018-03-25T12:04:16.758Z,26.77
2018-03-25T12:06:46.817Z,28.80
2018-03-25T12:09:18.369Z,22.90
2018-03-25T12:11:47.686Z,28.47
2018-03-25T12:14:17.448Z,26.53
2018-03-25T12:16:45.747Z,22.13
2018-03-25T12:19:14.696Z,24.50
2018-03-25T12:21:44.842Z,22.57
2018-03-25T12:24:13.895Z,26.23
2018-03-25T12:26:42.912Z,18.90
2018-03-25T12:29:11.172Z,20.30
2018-03-25T12:31:39.444Z,23.60
2018-03-25T12:34:07.743Z,22.20
2018-03-25T12:36:36.019Z,22.87
2018-03-25T12:39:04.319Z,21.77
2018-03-25T12:41:32.580Z,20.93
2018-03-25T12:44:00.902Z,25.20
2018-03-25T12:46:30.342Z,23.17
2018-03-25T12:48:58.643Z,20.57
2018-03-25T12:51:26.917Z,20.53
2018-03-25T12:53:55.239Z,22.70
2018-03-25T12:56:24.269Z,22.50
2018-03-25T12:58:52.529Z,23.50
2018-03-25T13:01:20.803Z,22.57
2018-03-25T13:03:50.026Z,22.10
2018-03-25T13:06:19.278Z,27.53
2018-03-25T13:08:48.441Z,20.67
2018-03-25T13:11:17.466Z,20.43
2018-03-25T13:13:48.305Z,28.47
2018-03-25T13:16:17.354Z,25.10
2018-03-25T13:18:46.332Z,19.97
2018-03-25T13:21:16.984Z,37.07
2018-03-25T13:23:45.248Z,33.50
2018-03-25T13:26:14.278Z,24.83
2018-03-25T13:28:43.337Z,23.60
2018-03-25T13:31:11.601Z,21.80
2018-03-25T13:33:39.882Z,22.57
2018-03-25T13:36:08.288Z,22.20
2018-03-25T13:38:36.541Z,21.13
2018-03-25T13:41:07.363Z,24.37
2018-03-25T13:43:36.097Z,20.47
2018-03-25T13:46:04.388Z,19.20
2018-03-25T13:48:34.641Z,20.90
2018-03-25T13:51:02.916Z,22.63
2018-03-25T13:53:31.214Z,21.50
2018-03-25T13:55:59.496Z,23.67
2018-03-25T13:58:27.776Z,22.93
2018-03-25T14:00:56.120Z,23.87
2018-03-25T14:03:24.365Z,23.23
2018-03-25T14:05:53.636Z,16.43
2018-03-25T14:08:21.939Z,25.83
2018-03-25T14:10:51.252Z,21.80
2018-03-25T14:13:19.610Z,22.93
2018-03-25T14:15:47.885Z,26.23
2018-03-25T14:18:16.146Z,23.20
2018-03-25T14:20:44.409Z,22.00
2018-03-25T14:23:13.355Z,25.03
2018-03-25T14:25:43.326Z,24.80
2018-03-25T14:28:12.787Z,26.90
2018-03-25T14:30:42.486Z,22.60
2018-03-25T14:33:12.111Z,22.53
2018-03-25T14:35:40.415Z,22.10
2018-03-25T14:38:08.803Z,27.30
2018-03-25T14:40:37.987Z,25.00
2018-03-25T14:43:06.259Z,23.40
2018-03-25T14:45:35.190Z,25.40
2018-03-25T14:48:05.018Z,24.87
2018-03-25T14:50:34.068Z,28.40
2018-03-25T14:53:02.453Z,22.00
2018-03-25T14:55:30.717Z,24.33
2018-03-25T14:57:59.006Z,28.70
2018-03-25T15:00:27.328Z,25.67
2018-03-25T15:02:57.025Z,22.83
2018-03-25T15:05:25.319Z,25.83
2018-03-25T15:07:54.385Z,23.20
2018-03-25T15:10:22.654Z,22.30
2018-03-25T15:12:51.017Z,19.13
2018-03-25T15:15:19.312Z,23.80
2018-03-25T15:17:47.590Z,22.80
2018-03-25T15:20:15.871Z,24.00
2018-03-25T15:22:45.028Z,23.20
2018-03-25T15:25:13.326Z,26.33
2018-03-25T15:27:42.410Z,27.80
2018-03-25T15:30:11.213Z,27.40
2018-03-25T15:32:40.518Z,22.77
2018-03-25T15:35:09.986Z,20.83
2018-03-25T15:37:42.119Z,23.23
2018-03-25T15:40:13.642Z,21.80
2018-03-25T15:42:41.943Z,23.97
2018-03-25T15:45:11.012Z,23.47
2018-03-25T15:47:39.298Z,28.17
2018-03-25T15:50:07.582Z,24.73
2018-03-25T15:52:36.651Z,25.10
2018-03-25T15:55:04.920Z,22.23
2018-03-25T15:57:33.191Z,26.77
2018-03-25T16:00:01.718Z,23.10
2018-03-25T16:02:30.804Z,24.60
2018-03-25T16:04:59.075Z,24.60
2018-03-25T16:07:27.346Z,25.80
2018-03-25T16:09:55.621Z,31.50
2018-03-25T16:12:23.909Z,24.47
2018-03-25T16:14:52.187Z,26.67
2018-03-25T16:17:20.455Z,27.13
2018-03-25T16:19:48.731Z,30.90
2018-03-25T16:22:16.996Z,30.50
2018-03-25T16:24:46.237Z,25.13
2018-03-25T16:27:15.412Z,27.70
2018-03-25T16:29:43.726Z,27.13
2018-03-25T16:32:12.834Z,32.77
2018-03-25T16:34:41.774Z,53.20
2018-03-25T16:37:10.999Z,73.90
2018-03-25T16:39:39.325Z,39.10
2018-03-25T16:42:07.576Z,31.63
2018-03-25T16:44:36.840Z,28.57
2018-03-25T16:47:05.881Z,30.40
2018-03-25T16:49:34.660Z,27.93
2018-03-25T16:52:03.783Z,24.17
2018-03-25T16:54:32.066Z,26.93
2018-03-25T16:57:00.350Z,24.37
2018-03-25T16:59:29.584Z,24.47
2018-03-25T17:01:57.858Z,25.10
2018-03-25T17:04:26.909Z,26.20
2018-03-25T17:06:55.276Z,31.87
2018-03-25T17:09:23.551Z,28.67
2018-03-25T17:11:51.830Z,28.67
2018-03-25T17:14:20.130Z,28.77
2018-03-25T17:16:49.408Z,30.97
2018-03-25T17:19:18.341Z,26.63
2018-03-25T17:21:48.068Z,29.20
2018-03-25T17:24:16.925Z,26.27
2018-03-25T17:26:46.214Z,30.83
2018-03-25T17:29:21.476Z,30.17
2018-03-25T17:31:50.518Z,29.67
2018-03-25T17:34:18.795Z,28.20
2018-03-25T17:36:47.076Z,32.57
2018-03-25T17:39:15.377Z,29.50
2018-03-25T17:41:44.859Z,35.13
2018-03-25T17:44:14.392Z,32.60
2018-03-25T17:46:43.312Z,37.27
2018-03-25T17:49:13.412Z,34.03
2018-03-25T17:51:41.702Z,36.43
2018-03-25T17:54:10.764Z,40.50
2018-03-25T17:56:39.056Z,37.50
2018-03-25T17:59:08.226Z,33.53
2018-03-25T18:01:36.505Z,31.13
2018-03-25T18:04:04.941Z,35.30
2018-03-25T18:06:33.228Z,39.37
2018-03-25T18:09:01.514Z,36.10
2018-03-25T18:11:31.640Z,36.60
2018-03-25T18:13:59.939Z,34.17
2018-03-25T18:16:28.244Z,34.37
2018-03-25T18:18:56.549Z,34.10
2018-03-25T18:21:24.834Z,35.93
2018-03-25T18:23:53.106Z,36.00
2018-03-25T18:26:21.397Z,33.40
2018-03-25T18:28:49.790Z,38.53
2018-03-25T18:31:18.084Z,36.23
2018-03-25T18:33:46.367Z,32.90
2018-03-25T18:36:14.642Z,38.87
2018-03-25T18:38:42.928Z,40.43
2018-03-25T18:41:11.189Z,38.47
2018-03-25T18:43:39.483Z,35.80
2018-03-25T18:46:07.744Z,38.67
2018-03-25T18:48:37.274Z,37.63
2018-03-25T18:51:05.529Z,46.60
2018-03-25T18:53:33.888Z,36.33
2018-03-25T18:56:02.198Z,43.90
2018-03-25T18:58:31.263Z,41.10
2018-03-25T19:00:59.551Z,43.47
2018-03-25T19:03:27.855Z,35.47
2018-03-25T19:05:57.517Z,43.97
2018-03-25T19:08:25.794Z,44.80
2018-03-25T19:10:54.078Z,43.10
2018-03-25T19:13:23.955Z,41.53
2018-03-25T19:15:53.085Z,40.27
2018-03-25T19:18:21.363Z,46.43
2018-03-25T19:20:49.659Z,51.23
2018-03-25T19:23:19.928Z,47.23
2018-03-25T19:25:49.190Z,44.33
2018-03-25T19:28:19.194Z,40.93
2018-03-25T19:30:47.464Z,45.90
2018-03-25T19:33:15.747Z,43.87
2018-03-25T19:35:44.022Z,42.30
2018-03-25T19:38:12.294Z,45.53
2018-03-25T19:40:41.502Z,39.30
2018-03-25T19:43:10.698Z,43.17
2018-03-25T19:45:39.752Z,38.90
2018-03-25T19:48:08.830Z,46.00
2018-03-25T19:50:37.243Z,42.57
2018-03-25T19:53:05.596Z,38.83
2018-03-25T19:55:33.865Z,45.07
2018-03-25T19:58:02.170Z,44.30
2018-03-25T20:00:31.065Z,41.17
2018-03-25T20:02:59.352Z,45.37
2018-03-25T20:05:28.480Z,49.20
2018-03-25T20:08:00.643Z,48.27
2018-03-25T20:10:28.952Z,46.50
2018-03-25T20:12:58.216Z,43.17
2018-03-25T20:15:26.528Z,44.07
2018-03-25T20:17:54.817Z,43.03
2018-03-25T20:20:23.079Z,46.90
2018-03-25T20:22:51.289Z,49.03
2018-03-25T20:25:19.584Z,47.00
2018-03-25T20:27:47.872Z,44.10
2018-03-25T20:30:16.899Z,43.87
2018-03-25T20:32:45.160Z,49.00
2018-03-25T20:35:13.424Z,52.67
2018-03-25T20:37:42.455Z,47.93
2018-03-25T20:40:10.715Z,51.00
2018-03-25T20:42:38.985Z,46.47
2018-03-25T20:45:07.257Z,48.67
2018-03-25T20:47:35.529Z,49.97
2018-03-25T20:50:04.561Z,45.07
2018-03-25T20:52:32.838Z,47.53
2018-03-25T20:55:01.169Z,44.80
2018-03-25T20:57:31.745Z,48.97
2018-03-25T21:00:00.888Z,50.20
2018-03-25T21:02:29.200Z,54.57
2018-03-25T21:04:58.639Z,50.47
2018-03-25T21:07:26.926Z,48.80
2018-03-25T21:09:55.216Z,43.90
2018-03-25T21:12:23.474Z,48.00
2018-03-25T21:14:52.436Z,49.03
2018-03-25T21:17:23.835Z,47.00
2018-03-25T21:19:54.031Z,60.73
2018-03-25T21:22:22.585Z,48.27
2018-03-25T21:24:51.590Z,47.90
2018-03-25T21:27:20.939Z,46.07
2018-03-25T21:29:50.894Z,49.00
2018-03-25T21:32:20.402Z,48.90
2018-03-25T21:34:48.677Z,48.83
2018-03-25T21:37:16.966Z,49.73
2018-03-25T21:39:45.262Z,46.50
2018-03-25T21:42:15.249Z,55.80
2018-03-25T21:44:44.456Z,49.60
2018-03-25T21:47:12.744Z,46.07
2018-03-25T21:49:41.724Z,55.23
2018-03-25T21:52:10.017Z,51.60
2018-03-25T21:54:38.850Z,49.20
2018-03-25T21:57:07.895Z,55.87
2018-03-25T21:59:36.172Z,49.53
2018-03-25T22:02:04.433Z,54.17
2018-03-25T22:04:32.726Z,56.73
2018-03-25T22:07:00.994Z,59.50
2018-03-25T22:09:29.272Z,50.53
2018-03-25T22:11:57.570Z,44.37
2018-03-25T22:14:25.843Z,52.97
2018-03-25T22:16:55.756Z,56.43
2018-03-25T22:19:24.047Z,53.43
2018-03-25T22:21:53.204Z,50.40
2018-03-25T22:24:22.290Z,48.90
2018-03-25T22:26:51.512Z,55.43
2018-03-25T22:29:20.687Z,51.97
2018-03-25T22:31:50.540Z,46.70
2018-03-25T22:34:21.185Z,55.20
2018-03-25T22:36:50.466Z,53.50
2018-03-25T22:39:19.561Z,54.03
2018-03-25T22:41:48.430Z,59.33
2018-03-25T22:44:16.794Z,52.10
2018-03-25T22:46:46.752Z,58.30
2018-03-25T22:49:15.015Z,52.23
2018-03-25T22:51:43.285Z,58.33
2018-03-25T22:54:11.542Z,52.43
2018-03-25T22:56:39.816Z,55.63
2018-03-25T22:59:08.083Z,58.07
2018-03-25T23:01:37.228Z,51.63
2018-03-25T23:04:05.550Z,63.33
2018-03-25T23:06:33.833Z,55.93
2018-03-25T23:09:02.115Z,47.93
2018-03-25T23:11:31.149Z,60.23
2018-03-25T23:14:00.001Z,52.90
2018-03-25T23:16:29.077Z,58.10
2018-03-25T23:18:58.330Z,62.07
2018-03-25T23:21:26.621Z,56.57
2018-03-25T23:23:55.509Z,52.27
2018-03-25T23:26:23.819Z,52.80
2018-03-25T23:28:52.835Z,59.37
2018-03-25T23:31:21.196Z,54.27
2018-03-25T23:33:50.140Z,58.63
2018-03-25T23:36:18.398Z,49.90
2018-03-25T23:38:46.670Z,54.10
2018-03-25T23:41:14.948Z,55.63
2018-03-25T23:43:43.554Z,59.97
2018-03-25T23:46:11.822Z,57.00
2018-03-25T23:48:40.078Z,53.27
2018-03-25T23:51:08.383Z,56.63
2018-03-25T23:53:36.743Z,63.23
2018-03-25T23:56:05.007Z,59.83
2018-03-25T23:58:33.283Z,56.60
